sensor_id;sensor_type;location;lat;lon;timestamp;P1;durP1;ratioP1;P2;durP2;ratioP2
69081;SDS011;56184;51.986;5.760;2022-11-18T00:01:44;4.25;;;1.90;;
69081;SDS011;56184;51.986;5.760;2022-11-18T00:04:10;8.80;;;1.92;;
69081;SDS011;56184;51.986;5.760;2022-11-18T00:06:35;5.72;;;1.85;;
69081;SDS011;56184;51.986;5.760;2022-11-18T00:09:01;4.97;;;1.85;;
69081;SDS011;56184;51.986;5.760;2022-11-18T00:11:27;8.35;;;2.88;;
69081;SDS011;56184;51.986;5.760;2022-11-18T00:14:15;6.68;;;1.92;;
69081;SDS011;56184;51.986;5.760;2022-11-18T00:19:14;5.60;;;2.47;;
69081;SDS011;56184;51.986;5.760;2022-11-18T00:21:39;5.28;;;1.95;;
69081;SDS011;56184;51.986;5.760;2022-11-18T00:24:05;5.90;;;1.90;;
69081;SDS011;56184;51.986;5.760;2022-11-18T00:26:31;7.43;;;2.10;;
69081;SDS011;56184;51.986;5.760;2022-11-18T00:28:56;8.25;;;2.40;;
69081;SDS011;56184;51.986;5.760;2022-11-18T00:31:22;2.78;;;1.50;;
69081;SDS011;56184;51.986;5.760;2022-11-18T00:33:48;5.03;;;2.00;;
69081;SDS011;56184;51.986;5.760;2022-11-18T00:36:13;3.63;;;1.90;;
69081;SDS011;56184;51.986;5.760;2022-11-18T00:38:39;3.92;;;1.70;;
69081;SDS011;56184;51.986;5.760;2022-11-18T00:41:09;5.22;;;2.10;;
69081;SDS011;56184;51.986;5.760;2022-11-18T00:43:37;6.00;;;2.33;;
69081;SDS011;56184;51.986;5.760;2022-11-18T00:46:04;3.85;;;1.80;;
69081;SDS011;56184;51.986;5.760;2022-11-18T00:48:30;5.32;;;1.95;;
69081;SDS011;56184;51.986;5.760;2022-11-18T00:50:57;6.10;;;1.98;;
69081;SDS011;56184;51.986;5.760;2022-11-18T00:53:30;6.50;;;2.00;;
69081;SDS011;56184;51.986;5.760;2022-11-18T00:55:56;6.60;;;2.08;;
69081;SDS011;56184;51.986;5.760;2022-11-18T00:58:24;3.50;;;1.90;;
69081;SDS011;56184;51.986;5.760;2022-11-18T01:00:50;5.95;;;2.10;;
69081;SDS011;56184;51.986;5.760;2022-11-18T01:03:16;7.57;;;2.35;;
69081;SDS011;56184;51.986;5.760;2022-11-18T01:05:43;5.80;;;2.35;;
69081;SDS011;56184;51.986;5.760;2022-11-18T01:08:09;9.57;;;2.08;;
69081;SDS011;56184;51.986;5.760;2022-11-18T01:10:36;8.30;;;1.80;;
69081;SDS011;56184;51.986;5.760;2022-11-18T01:13:03;5.18;;;2.08;;
69081;SDS011;56184;51.986;5.760;2022-11-18T01:15:51;5.30;;;1.60;;
69081;SDS011;56184;51.986;5.760;2022-11-18T01:18:20;4.40;;;1.95;;
69081;SDS011;56184;51.986;5.760;2022-11-18T01:20:48;7.63;;;2.15;;
69081;SDS011;56184;51.986;5.760;2022-11-18T01:23:15;4.68;;;2.15;;
69081;SDS011;56184;51.986;5.760;2022-11-18T01:25:42;4.70;;;1.92;;
69081;SDS011;56184;51.986;5.760;2022-11-18T01:28:09;4.35;;;2.00;;
69081;SDS011;56184;51.986;5.760;2022-11-18T01:30:35;5.25;;;2.30;;
69081;SDS011;56184;51.986;5.760;2022-11-18T01:33:02;7.20;;;2.15;;
69081;SDS011;56184;51.986;5.760;2022-11-18T01:35:39;6.22;;;1.90;;
69081;SDS011;56184;51.986;5.760;2022-11-18T01:38:07;5.57;;;1.77;;
69081;SDS011;56184;51.986;5.760;2022-11-18T01:40:35;5.93;;;1.80;;
69081;SDS011;56184;51.986;5.760;2022-11-18T01:43:01;9.82;;;2.20;;
69081;SDS011;56184;51.986;5.760;2022-11-18T01:45:33;8.63;;;2.15;;
69081;SDS011;56184;51.986;5.760;2022-11-18T01:50:55;7.75;;;1.83;;
69081;SDS011;56184;51.986;5.760;2022-11-18T01:53:27;7.05;;;2.03;;
69081;SDS011;56184;51.986;5.760;2022-11-18T01:55:57;8.90;;;2.10;;
69081;SDS011;56184;51.986;5.760;2022-11-18T01:58:30;6.03;;;1.95;;
69081;SDS011;56184;51.986;5.760;2022-11-18T02:01:03;8.30;;;2.00;;
69081;SDS011;56184;51.986;5.760;2022-11-18T02:03:31;6.72;;;1.95;;
69081;SDS011;56184;51.986;5.760;2022-11-18T02:05:57;3.08;;;1.83;;
69081;SDS011;56184;51.986;5.760;2022-11-18T02:08:25;3.35;;;1.98;;
69081;SDS011;56184;51.986;5.760;2022-11-18T02:10:52;4.95;;;2.08;;
69081;SDS011;56184;51.986;5.760;2022-11-18T02:13:19;4.53;;;1.95;;
69081;SDS011;56184;51.986;5.760;2022-11-18T02:26:52;8.50;;;2.20;;
69081;SDS011;56184;51.986;5.760;2022-11-18T02:29:54;5.00;;;1.83;;
69081;SDS011;56184;51.986;5.760;2022-11-18T02:32:23;6.78;;;1.83;;
69081;SDS011;56184;51.986;5.760;2022-11-18T02:34:58;7.28;;;1.90;;
69081;SDS011;56184;51.986;5.760;2022-11-18T02:42:34;6.57;;;2.10;;
69081;SDS011;56184;51.986;5.760;2022-11-18T02:45:04;6.40;;;2.05;;
69081;SDS011;56184;51.986;5.760;2022-11-18T02:47:32;4.32;;;1.52;;
69081;SDS011;56184;51.986;5.760;2022-11-18T02:50:03;5.57;;;2.08;;
69081;SDS011;56184;51.986;5.760;2022-11-18T02:52:33;4.57;;;2.00;;
69081;SDS011;56184;51.986;5.760;2022-11-18T02:55:01;6.32;;;1.80;;
69081;SDS011;56184;51.986;5.760;2022-11-18T02:57:30;13.55;;;2.45;;
69081;SDS011;56184;51.986;5.760;2022-11-18T02:59:59;4.43;;;1.70;;
69081;SDS011;56184;51.986;5.760;2022-11-18T03:02:24;7.88;;;1.92;;
69081;SDS011;56184;51.986;5.760;2022-11-18T03:04:51;6.60;;;2.10;;
69081;SDS011;56184;51.986;5.760;2022-11-18T03:09:53;6.60;;;2.00;;
69081;SDS011;56184;51.986;5.760;2022-11-18T03:12:28;3.65;;;2.00;;
69081;SDS011;56184;51.986;5.760;2022-11-18T03:17:47;4.80;;;1.88;;
69081;SDS011;56184;51.986;5.760;2022-11-18T03:20:35;5.45;;;2.15;;
69081;SDS011;56184;51.986;5.760;2022-11-18T03:23:11;5.30;;;2.17;;
69081;SDS011;56184;51.986;5.760;2022-11-18T03:25:44;3.20;;;1.70;;
69081;SDS011;56184;51.986;5.760;2022-11-18T03:30:51;4.78;;;1.95;;
69081;SDS011;56184;51.986;5.760;2022-11-18T03:33:23;8.02;;;2.03;;
69081;SDS011;56184;51.986;5.760;2022-11-18T03:35:54;6.78;;;2.33;;
69081;SDS011;56184;51.986;5.760;2022-11-18T03:38:25;4.35;;;2.00;;
69081;SDS011;56184;51.986;5.760;2022-11-18T03:40:56;7.60;;;2.05;;
69081;SDS011;56184;51.986;5.760;2022-11-18T03:43:25;7.75;;;2.28;;
69081;SDS011;56184;51.986;5.760;2022-11-18T03:45:55;6.15;;;2.20;;
69081;SDS011;56184;51.986;5.760;2022-11-18T03:48:30;5.63;;;2.40;;
69081;SDS011;56184;51.986;5.760;2022-11-18T03:51:04;8.48;;;2.33;;
69081;SDS011;56184;51.986;5.760;2022-11-18T03:53:36;4.68;;;1.67;;
69081;SDS011;56184;51.986;5.760;2022-11-18T03:56:14;4.30;;;2.05;;
69081;SDS011;56184;51.986;5.760;2022-11-18T03:58:52;5.55;;;1.98;;
69081;SDS011;56184;51.986;5.760;2022-11-18T04:01:26;6.63;;;2.08;;
69081;SDS011;56184;51.986;5.760;2022-11-18T04:03:57;7.78;;;2.30;;
69081;SDS011;56184;51.986;5.760;2022-11-18T04:06:35;9.38;;;2.42;;
69081;SDS011;56184;51.986;5.760;2022-11-18T04:09:08;5.32;;;1.90;;
69081;SDS011;56184;51.986;5.760;2022-11-18T04:11:58;4.75;;;2.00;;
69081;SDS011;56184;51.986;5.760;2022-11-18T04:14:39;4.30;;;2.00;;
69081;SDS011;56184;51.986;5.760;2022-11-18T04:17:11;6.03;;;1.90;;
69081;SDS011;56184;51.986;5.760;2022-11-18T04:19:38;14.40;;;2.13;;
69081;SDS011;56184;51.986;5.760;2022-11-18T04:22:05;8.20;;;2.40;;
69081;SDS011;56184;51.986;5.760;2022-11-18T04:24:31;5.00;;;2.00;;
69081;SDS011;56184;51.986;5.760;2022-11-18T04:26:57;5.32;;;2.10;;
69081;SDS011;56184;51.986;5.760;2022-11-18T04:29:23;4.35;;;2.13;;
69081;SDS011;56184;51.986;5.760;2022-11-18T04:31:48;5.93;;;2.30;;
69081;SDS011;56184;51.986;5.760;2022-11-18T04:34:14;4.32;;;2.10;;
69081;SDS011;56184;51.986;5.760;2022-11-18T04:36:39;7.22;;;2.13;;
69081;SDS011;56184;51.986;5.760;2022-11-18T04:39:05;9.60;;;2.10;;
69081;SDS011;56184;51.986;5.760;2022-11-18T04:41:32;8.95;;;2.40;;
69081;SDS011;56184;51.986;5.760;2022-11-18T04:44:16;7.03;;;2.28;;
69081;SDS011;56184;51.986;5.760;2022-11-18T04:46:42;3.83;;;1.90;;
69081;SDS011;56184;51.986;5.760;2022-11-18T04:49:10;4.47;;;2.13;;
69081;SDS011;56184;51.986;5.760;2022-11-18T04:51:37;5.43;;;2.20;;
69081;SDS011;56184;51.986;5.760;2022-11-18T04:54:11;9.75;;;2.40;;
69081;SDS011;56184;51.986;5.760;2022-11-18T04:56:38;7.30;;;2.10;;
69081;SDS011;56184;51.986;5.760;2022-11-18T04:59:04;9.90;;;2.22;;
69081;SDS011;56184;51.986;5.760;2022-11-18T05:01:31;4.88;;;2.20;;
69081;SDS011;56184;51.986;5.760;2022-11-18T05:03:58;5.35;;;2.00;;
69081;SDS011;56184;51.986;5.760;2022-11-18T05:06:24;5.95;;;2.00;;
69081;SDS011;56184;51.986;5.760;2022-11-18T05:08:50;5.07;;;2.10;;
69081;SDS011;56184;51.986;5.760;2022-11-18T05:11:15;6.05;;;2.20;;
69081;SDS011;56184;51.986;5.760;2022-11-18T05:14:00;9.20;;;2.45;;
69081;SDS011;56184;51.986;5.760;2022-11-18T05:16:25;4.55;;;2.20;;
69081;SDS011;56184;51.986;5.760;2022-11-18T05:18:51;7.68;;;2.38;;
69081;SDS011;56184;51.986;5.760;2022-11-18T05:21:16;5.88;;;2.50;;
69081;SDS011;56184;51.986;5.760;2022-11-18T05:23:42;4.60;;;2.20;;
69081;SDS011;56184;51.986;5.760;2022-11-18T05:26:09;4.28;;;1.90;;
69081;SDS011;56184;51.986;5.760;2022-11-18T05:28:35;6.07;;;2.03;;
69081;SDS011;56184;51.986;5.760;2022-11-18T05:31:08;8.77;;;2.33;;
69081;SDS011;56184;51.986;5.760;2022-11-18T05:33:35;7.55;;;2.17;;
69081;SDS011;56184;51.986;5.760;2022-11-18T05:36:01;6.20;;;2.22;;
69081;SDS011;56184;51.986;5.760;2022-11-18T05:38:28;4.57;;;2.10;;
69081;SDS011;56184;51.986;5.760;2022-11-18T05:40:55;4.68;;;2.00;;
69081;SDS011;56184;51.986;5.760;2022-11-18T05:43:21;7.22;;;2.30;;
69081;SDS011;56184;51.986;5.760;2022-11-18T05:45:48;7.40;;;1.90;;
69081;SDS011;56184;51.986;5.760;2022-11-18T05:48:15;11.07;;;2.47;;
69081;SDS011;56184;51.986;5.760;2022-11-18T05:50:41;3.88;;;2.08;;
69081;SDS011;56184;51.986;5.760;2022-11-18T05:53:09;3.78;;;2.00;;
69081;SDS011;56184;51.986;5.760;2022-11-18T05:55:37;3.97;;;2.08;;
69081;SDS011;56184;51.986;5.760;2022-11-18T05:58:06;3.22;;;2.03;;
69081;SDS011;56184;51.986;5.760;2022-11-18T06:00:31;9.95;;;2.92;;
69081;SDS011;56184;51.986;5.760;2022-11-18T06:02:57;10.73;;;2.28;;
69081;SDS011;56184;51.986;5.760;2022-11-18T06:05:24;9.18;;;2.17;;
69081;SDS011;56184;51.986;5.760;2022-11-18T06:07:50;5.18;;;2.20;;
69081;SDS011;56184;51.986;5.760;2022-11-18T06:10:21;4.03;;;2.25;;
69081;SDS011;56184;51.986;5.760;2022-11-18T06:12:53;4.18;;;1.95;;
69081;SDS011;56184;51.986;5.760;2022-11-18T06:15:25;9.15;;;2.70;;
69081;SDS011;56184;51.986;5.760;2022-11-18T06:18:02;4.28;;;2.00;;
69081;SDS011;56184;51.986;5.760;2022-11-18T06:20:31;5.47;;;2.30;;
69081;SDS011;56184;51.986;5.760;2022-11-18T06:22:59;5.50;;;2.67;;
69081;SDS011;56184;51.986;5.760;2022-11-18T06:25:26;5.50;;;2.35;;
69081;SDS011;56184;51.986;5.760;2022-11-18T06:27:53;13.68;;;2.60;;
69081;SDS011;56184;51.986;5.760;2022-11-18T06:30:22;5.57;;;2.40;;
69081;SDS011;56184;51.986;5.760;2022-11-18T06:32:47;4.43;;;2.10;;
69081;SDS011;56184;51.986;5.760;2022-11-18T06:35:13;7.45;;;2.55;;
69081;SDS011;56184;51.986;5.760;2022-11-18T06:37:39;6.70;;;2.60;;
69081;SDS011;56184;51.986;5.760;2022-11-18T06:40:04;5.07;;;2.10;;
69081;SDS011;56184;51.986;5.760;2022-11-18T06:42:30;7.30;;;2.13;;
69081;SDS011;56184;51.986;5.760;2022-11-18T06:45:15;8.57;;;2.20;;
69081;SDS011;56184;51.986;5.760;2022-11-18T06:47:41;5.03;;;2.40;;
69081;SDS011;56184;51.986;5.760;2022-11-18T06:50:06;4.07;;;2.10;;
69081;SDS011;56184;51.986;5.760;2022-11-18T06:52:32;4.75;;;2.40;;
69081;SDS011;56184;51.986;5.760;2022-11-18T06:54:58;4.03;;;2.10;;
69081;SDS011;56184;51.986;5.760;2022-11-18T06:57:23;6.07;;;2.10;;
69081;SDS011;56184;51.986;5.760;2022-11-18T06:59:49;9.32;;;2.60;;
69081;SDS011;56184;51.986;5.760;2022-11-18T07:02:15;3.55;;;2.05;;
69081;SDS011;56184;51.986;5.760;2022-11-18T07:04:42;5.28;;;2.00;;
69081;SDS011;56184;51.986;5.760;2022-11-18T07:07:08;5.75;;;2.17;;
69081;SDS011;56184;51.986;5.760;2022-11-18T07:09:34;4.63;;;2.30;;
69081;SDS011;56184;51.986;5.760;2022-11-18T07:12:01;8.35;;;2.88;;
69081;SDS011;56184;51.986;5.760;2022-11-18T07:14:27;5.13;;;2.45;;
69081;SDS011;56184;51.986;5.760;2022-11-18T07:16:53;3.95;;;2.10;;
69081;SDS011;56184;51.986;5.760;2022-11-18T07:19:18;6.70;;;2.47;;
69081;SDS011;56184;51.986;5.760;2022-11-18T07:21:44;5.20;;;2.17;;
69081;SDS011;56184;51.986;5.760;2022-11-18T07:24:13;3.83;;;2.30;;
69081;SDS011;56184;51.986;5.760;2022-11-18T07:26:39;11.82;;;2.55;;
69081;SDS011;56184;51.986;5.760;2022-11-18T07:29:06;6.53;;;2.33;;
69081;SDS011;56184;51.986;5.760;2022-11-18T07:31:31;6.55;;;2.40;;
69081;SDS011;56184;51.986;5.760;2022-11-18T07:33:59;8.45;;;2.88;;
69081;SDS011;56184;51.986;5.760;2022-11-18T07:36:26;8.40;;;2.50;;
69081;SDS011;56184;51.986;5.760;2022-11-18T07:38:52;7.00;;;2.55;;
69081;SDS011;56184;51.986;5.760;2022-11-18T07:41:19;3.58;;;2.33;;
69081;SDS011;56184;51.986;5.760;2022-11-18T07:43:47;5.05;;;2.38;;
69081;SDS011;56184;51.986;5.760;2022-11-18T07:46:21;4.93;;;2.53;;
69081;SDS011;56184;51.986;5.760;2022-11-18T07:48:52;4.63;;;2.33;;
69081;SDS011;56184;51.986;5.760;2022-11-18T07:51:19;4.45;;;2.40;;
69081;SDS011;56184;51.986;5.760;2022-11-18T07:53:47;4.55;;;2.38;;
69081;SDS011;56184;51.986;5.760;2022-11-18T07:56:13;5.68;;;2.45;;
69081;SDS011;56184;51.986;5.760;2022-11-18T07:58:39;8.60;;;2.38;;
69081;SDS011;56184;51.986;5.760;2022-11-18T08:01:09;7.60;;;2.50;;
69081;SDS011;56184;51.986;5.760;2022-11-18T08:03:37;7.57;;;3.33;;
69081;SDS011;56184;51.986;5.760;2022-11-18T08:06:04;6.53;;;2.75;;
69081;SDS011;56184;51.986;5.760;2022-11-18T08:08:31;7.15;;;2.33;;
69081;SDS011;56184;51.986;5.760;2022-11-18T08:10:57;6.57;;;2.30;;
69081;SDS011;56184;51.986;5.760;2022-11-18T08:13:24;8.45;;;2.50;;
69081;SDS011;56184;51.986;5.760;2022-11-18T08:15:50;5.57;;;2.53;;
69081;SDS011;56184;51.986;5.760;2022-11-18T08:18:17;7.63;;;2.72;;
69081;SDS011;56184;51.986;5.760;2022-11-18T08:20:43;7.55;;;2.67;;
69081;SDS011;56184;51.986;5.760;2022-11-18T08:23:11;7.88;;;2.65;;
69081;SDS011;56184;51.986;5.760;2022-11-18T08:25:38;3.15;;;2.40;;
69081;SDS011;56184;51.986;5.760;2022-11-18T08:28:04;7.57;;;2.83;;
69081;SDS011;56184;51.986;5.760;2022-11-18T08:30:31;4.65;;;2.70;;
69081;SDS011;56184;51.986;5.760;2022-11-18T08:32:57;3.33;;;2.38;;
69081;SDS011;56184;51.986;5.760;2022-11-18T08:35:24;9.15;;;2.60;;
69081;SDS011;56184;51.986;5.760;2022-11-18T08:37:51;10.63;;;3.55;;
69081;SDS011;56184;51.986;5.760;2022-11-18T08:40:16;5.45;;;2.50;;
69081;SDS011;56184;51.986;5.760;2022-11-18T08:42:42;5.03;;;2.20;;
69081;SDS011;56184;51.986;5.760;2022-11-18T08:45:07;4.40;;;2.70;;
69081;SDS011;56184;51.986;5.760;2022-11-18T08:47:33;7.03;;;2.63;;
69081;SDS011;56184;51.986;5.760;2022-11-18T08:50:00;5.30;;;2.40;;
69081;SDS011;56184;51.986;5.760;2022-11-18T08:52:26;6.28;;;2.63;;
69081;SDS011;56184;51.986;5.760;2022-11-18T08:54:51;5.97;;;2.70;;
69081;SDS011;56184;51.986;5.760;2022-11-18T08:57:17;6.70;;;2.85;;
69081;SDS011;56184;51.986;5.760;2022-11-18T08:59:43;8.90;;;2.80;;
69081;SDS011;56184;51.986;5.760;2022-11-18T09:02:16;9.52;;;2.72;;
69081;SDS011;56184;51.986;5.760;2022-11-18T09:04:45;7.13;;;2.40;;
69081;SDS011;56184;51.986;5.760;2022-11-18T09:07:11;7.13;;;2.63;;
69081;SDS011;56184;51.986;5.760;2022-11-18T09:09:36;8.95;;;3.28;;
69081;SDS011;56184;51.986;5.760;2022-11-18T09:12:02;4.75;;;2.55;;
69081;SDS011;56184;51.986;5.760;2022-11-18T09:14:28;8.18;;;2.75;;
69081;SDS011;56184;51.986;5.760;2022-11-18T09:16:53;5.45;;;2.55;;
69081;SDS011;56184;51.986;5.760;2022-11-18T09:19:19;5.13;;;2.78;;
69081;SDS011;56184;51.986;5.760;2022-11-18T09:21:44;8.95;;;2.67;;
69081;SDS011;56184;51.986;5.760;2022-11-18T09:24:10;9.93;;;2.88;;
69081;SDS011;56184;51.986;5.760;2022-11-18T09:26:36;5.75;;;2.47;;
69081;SDS011;56184;51.986;5.760;2022-11-18T09:29:02;9.75;;;2.90;;
69081;SDS011;56184;51.986;5.760;2022-11-18T09:31:28;3.80;;;2.30;;
69081;SDS011;56184;51.986;5.760;2022-11-18T09:33:54;5.95;;;2.78;;
69081;SDS011;56184;51.986;5.760;2022-11-18T09:36:21;5.75;;;2.63;;
69081;SDS011;56184;51.986;5.760;2022-11-18T09:38:48;7.30;;;2.60;;
69081;SDS011;56184;51.986;5.760;2022-11-18T09:46:55;5.63;;;2.50;;
69081;SDS011;56184;51.986;5.760;2022-11-18T09:49:33;5.53;;;2.65;;
69081;SDS011;56184;51.986;5.760;2022-11-18T09:52:02;11.93;;;2.73;;
69081;SDS011;56184;51.986;5.760;2022-11-18T09:54:34;8.15;;;3.05;;
69081;SDS011;56184;51.986;5.760;2022-11-18T09:57:01;7.07;;;2.90;;
69081;SDS011;56184;51.986;5.760;2022-11-18T09:59:34;6.33;;;2.83;;
69081;SDS011;56184;51.986;5.760;2022-11-18T10:02:10;9.52;;;2.90;;
69081;SDS011;56184;51.986;5.760;2022-11-18T10:04:54;9.15;;;2.78;;
69081;SDS011;56184;51.986;5.760;2022-11-18T10:07:31;5.53;;;2.67;;
69081;SDS011;56184;51.986;5.760;2022-11-18T10:10:07;6.03;;;2.90;;
69081;SDS011;56184;51.986;5.760;2022-11-18T10:12:40;6.10;;;2.53;;
69081;SDS011;56184;51.986;5.760;2022-11-18T10:15:21;5.47;;;2.55;;
69081;SDS011;56184;51.986;5.760;2022-11-18T10:18:03;12.38;;;3.00;;
69081;SDS011;56184;51.986;5.760;2022-11-18T10:21:06;9.98;;;2.78;;
69081;SDS011;56184;51.986;5.760;2022-11-18T10:23:51;5.93;;;2.47;;
69081;SDS011;56184;51.986;5.760;2022-11-18T10:26:33;7.32;;;2.80;;
69081;SDS011;56184;51.986;5.760;2022-11-18T10:29:03;7.10;;;2.55;;
69081;SDS011;56184;51.986;5.760;2022-11-18T10:31:34;7.22;;;3.05;;
69081;SDS011;56184;51.986;5.760;2022-11-18T10:34:09;6.28;;;2.40;;
69081;SDS011;56184;51.986;5.760;2022-11-18T10:36:39;14.07;;;3.33;;
69081;SDS011;56184;51.986;5.760;2022-11-18T10:41:42;6.72;;;2.72;;
69081;SDS011;56184;51.986;5.760;2022-11-18T10:47:18;8.88;;;2.97;;
69081;SDS011;56184;51.986;5.760;2022-11-18T10:49:46;8.38;;;2.53;;
69081;SDS011;56184;51.986;5.760;2022-11-18T10:52:12;5.38;;;2.50;;
69081;SDS011;56184;51.986;5.760;2022-11-18T10:54:38;5.53;;;2.70;;
69081;SDS011;56184;51.986;5.760;2022-11-18T10:59:50;7.97;;;3.05;;
69081;SDS011;56184;51.986;5.760;2022-11-18T11:04:58;4.90;;;2.67;;
69081;SDS011;56184;51.986;5.760;2022-11-18T11:07:30;10.00;;;2.90;;
69081;SDS011;56184;51.986;5.760;2022-11-18T11:09:59;6.10;;;2.72;;
69081;SDS011;56184;51.986;5.760;2022-11-18T11:12:29;6.28;;;2.80;;
69081;SDS011;56184;51.986;5.760;2022-11-18T11:14:59;7.53;;;2.78;;
69081;SDS011;56184;51.986;5.760;2022-11-18T11:17:30;8.93;;;2.65;;
69081;SDS011;56184;51.986;5.760;2022-11-18T11:20:36;6.45;;;2.80;;
69081;SDS011;56184;51.986;5.760;2022-11-18T11:23:09;9.90;;;2.92;;
69081;SDS011;56184;51.986;5.760;2022-11-18T11:31:17;11.02;;;2.97;;
69081;SDS011;56184;51.986;5.760;2022-11-18T11:33:57;9.70;;;3.00;;
69081;SDS011;56184;51.986;5.760;2022-11-18T11:36:50;6.32;;;2.70;;
69081;SDS011;56184;51.986;5.760;2022-11-18T11:39:52;4.10;;;2.50;;
69081;SDS011;56184;51.986;5.760;2022-11-18T11:51:20;7.45;;;3.17;;
69081;SDS011;56184;51.986;5.760;2022-11-18T11:54:22;11.23;;;3.15;;
69081;SDS011;56184;51.986;5.760;2022-11-18T11:57:00;8.02;;;2.90;;
69081;SDS011;56184;51.986;5.760;2022-11-18T11:59:42;5.20;;;2.50;;
69081;SDS011;56184;51.986;5.760;2022-11-18T12:02:28;6.80;;;2.67;;
69081;SDS011;56184;51.986;5.760;2022-11-18T12:05:16;8.38;;;3.30;;
69081;SDS011;56184;51.986;5.760;2022-11-18T12:07:55;6.43;;;3.03;;
69081;SDS011;56184;51.986;5.760;2022-11-18T12:15:29;11.38;;;2.80;;
69081;SDS011;56184;51.986;5.760;2022-11-18T12:18:07;8.35;;;3.03;;
69081;SDS011;56184;51.986;5.760;2022-11-18T12:20:46;6.75;;;3.05;;
69081;SDS011;56184;51.986;5.760;2022-11-18T12:23:14;6.55;;;2.78;;
69081;SDS011;56184;51.986;5.760;2022-11-18T12:28:22;7.90;;;3.20;;
69081;SDS011;56184;51.986;5.760;2022-11-18T12:33:55;8.73;;;2.90;;
69081;SDS011;56184;51.986;5.760;2022-11-18T12:36:30;7.72;;;3.25;;
69081;SDS011;56184;51.986;5.760;2022-11-18T12:38:56;13.38;;;3.40;;
69081;SDS011;56184;51.986;5.760;2022-11-18T12:44:33;7.38;;;2.97;;
69081;SDS011;56184;51.986;5.760;2022-11-18T12:47:01;11.35;;;3.30;;
69081;SDS011;56184;51.986;5.760;2022-11-18T12:51:57;8.63;;;2.85;;
69081;SDS011;56184;51.986;5.760;2022-11-18T12:54:36;8.25;;;2.90;;
69081;SDS011;56184;51.986;5.760;2022-11-18T12:57:22;13.50;;;3.22;;
69081;SDS011;56184;51.986;5.760;2022-11-18T12:59:56;5.13;;;3.05;;
69081;SDS011;56184;51.986;5.760;2022-11-18T13:02:25;9.75;;;3.40;;
69081;SDS011;56184;51.986;5.760;2022-11-18T13:07:27;8.45;;;3.75;;
69081;SDS011;56184;51.986;5.760;2022-11-18T13:10:18;8.77;;;3.20;;
69081;SDS011;56184;51.986;5.760;2022-11-18T13:12:47;10.95;;;3.33;;
69081;SDS011;56184;51.986;5.760;2022-11-18T13:15:14;10.35;;;3.47;;
69081;SDS011;56184;51.986;5.760;2022-11-18T13:18:18;9.90;;;3.17;;
69081;SDS011;56184;51.986;5.760;2022-11-18T13:20:57;10.32;;;2.83;;
69081;SDS011;56184;51.986;5.760;2022-11-18T13:23:44;11.55;;;2.97;;
69081;SDS011;56184;51.986;5.760;2022-11-18T13:26:20;9.25;;;2.78;;
69081;SDS011;56184;51.986;5.760;2022-11-18T13:28:56;10.88;;;3.35;;
69081;SDS011;56184;51.986;5.760;2022-11-18T13:34:47;8.43;;;3.07;;
69081;SDS011;56184;51.986;5.760;2022-11-18T13:37:18;6.45;;;2.40;;
69081;SDS011;56184;51.986;5.760;2022-11-18T13:39:47;9.10;;;2.67;;
69081;SDS011;56184;51.986;5.760;2022-11-18T13:44:50;6.65;;;2.35;;
69081;SDS011;56184;51.986;5.760;2022-11-18T13:50:05;6.10;;;2.22;;
69081;SDS011;56184;51.986;5.760;2022-11-18T13:52:42;10.40;;;3.17;;
69081;SDS011;56184;51.986;5.760;2022-11-18T13:55:20;7.97;;;3.00;;
69081;SDS011;56184;51.986;5.760;2022-11-18T13:58:00;11.20;;;3.17;;
69081;SDS011;56184;51.986;5.760;2022-11-18T14:00:30;7.20;;;2.83;;
69081;SDS011;56184;51.986;5.760;2022-11-18T14:02:59;10.07;;;3.30;;
69081;SDS011;56184;51.986;5.760;2022-11-18T14:05:27;11.30;;;3.20;;
69081;SDS011;56184;51.986;5.760;2022-11-18T14:13:46;9.48;;;3.10;;
69081;SDS011;56184;51.986;5.760;2022-11-18T14:16:01;8.25;;;2.83;;
69081;SDS011;56184;51.986;5.760;2022-11-18T14:18:48;9.70;;;2.60;;
69081;SDS011;56184;51.986;5.760;2022-11-18T14:21:25;5.72;;;2.13;;
69081;SDS011;56184;51.986;5.760;2022-11-18T14:23:53;6.47;;;2.78;;
69081;SDS011;56184;51.986;5.760;2022-11-18T14:26:28;8.77;;;2.65;;
69081;SDS011;56184;51.986;5.760;2022-11-18T14:29:12;8.13;;;2.25;;
69081;SDS011;56184;51.986;5.760;2022-11-18T14:32:01;13.93;;;2.60;;
69081;SDS011;56184;51.986;5.760;2022-11-18T14:34:45;6.75;;;2.83;;
69081;SDS011;56184;51.986;5.760;2022-11-18T14:37:22;5.53;;;2.30;;
69081;SDS011;56184;51.986;5.760;2022-11-18T14:39:54;5.53;;;2.45;;
69081;SDS011;56184;51.986;5.760;2022-11-18T14:42:21;5.80;;;2.55;;
69081;SDS011;56184;51.986;5.760;2022-11-18T14:44:47;7.95;;;2.50;;
69081;SDS011;56184;51.986;5.760;2022-11-18T14:47:21;12.07;;;2.42;;
69081;SDS011;56184;51.986;5.760;2022-11-18T14:49:49;10.82;;;2.83;;
69081;SDS011;56184;51.986;5.760;2022-11-18T14:52:15;6.20;;;2.42;;
69081;SDS011;56184;51.986;5.760;2022-11-18T14:54:40;10.07;;;2.80;;
69081;SDS011;56184;51.986;5.760;2022-11-18T14:57:09;8.48;;;3.80;;
69081;SDS011;56184;51.986;5.760;2022-11-18T14:59:38;9.98;;;4.18;;
69081;SDS011;56184;51.986;5.760;2022-11-18T15:02:03;8.88;;;3.35;;
69081;SDS011;56184;51.986;5.760;2022-11-18T15:04:29;10.77;;;3.03;;
69081;SDS011;56184;51.986;5.760;2022-11-18T15:06:55;5.82;;;2.50;;
69081;SDS011;56184;51.986;5.760;2022-11-18T15:09:20;3.30;;;2.30;;
69081;SDS011;56184;51.986;5.760;2022-11-18T15:11:46;7.40;;;2.63;;
69081;SDS011;56184;51.986;5.760;2022-11-18T15:14:12;9.18;;;2.72;;
69081;SDS011;56184;51.986;5.760;2022-11-18T15:16:37;6.97;;;2.88;;
69081;SDS011;56184;51.986;5.760;2022-11-18T15:19:03;6.13;;;2.53;;
69081;SDS011;56184;51.986;5.760;2022-11-18T15:21:30;6.47;;;2.60;;
69081;SDS011;56184;51.986;5.760;2022-11-18T15:23:56;6.00;;;3.10;;
69081;SDS011;56184;51.986;5.760;2022-11-18T15:26:25;5.75;;;2.83;;
69081;SDS011;56184;51.986;5.760;2022-11-18T15:29:03;8.68;;;2.72;;
69081;SDS011;56184;51.986;5.760;2022-11-18T15:31:29;6.95;;;2.80;;
69081;SDS011;56184;51.986;5.760;2022-11-18T15:33:55;7.13;;;2.35;;
69081;SDS011;56184;51.986;5.760;2022-11-18T15:36:22;9.07;;;2.58;;
69081;SDS011;56184;51.986;5.760;2022-11-18T15:38:49;9.20;;;2.70;;
69081;SDS011;56184;51.986;5.760;2022-11-18T15:41:16;6.80;;;2.70;;
69081;SDS011;56184;51.986;5.760;2022-11-18T15:43:50;7.35;;;2.60;;
69081;SDS011;56184;51.986;5.760;2022-11-18T15:46:17;9.00;;;3.20;;
69081;SDS011;56184;51.986;5.760;2022-11-18T15:48:44;6.80;;;3.00;;
69081;SDS011;56184;51.986;5.760;2022-11-18T15:51:10;10.95;;;3.08;;
69081;SDS011;56184;51.986;5.760;2022-11-18T15:53:36;10.32;;;3.13;;
69081;SDS011;56184;51.986;5.760;2022-11-18T16:01:20;6.72;;;2.88;;
69081;SDS011;56184;51.986;5.760;2022-11-18T16:03:46;6.75;;;2.92;;
69081;SDS011;56184;51.986;5.760;2022-11-18T16:06:12;7.63;;;3.35;;
69081;SDS011;56184;51.986;5.760;2022-11-18T16:08:38;6.60;;;3.00;;
69081;SDS011;56184;51.986;5.760;2022-11-18T16:11:03;6.68;;;3.13;;
69081;SDS011;56184;51.986;5.760;2022-11-18T16:13:47;7.30;;;2.80;;
69081;SDS011;56184;51.986;5.760;2022-11-18T16:16:20;9.25;;;2.90;;
69081;SDS011;56184;51.986;5.760;2022-11-18T16:18:46;6.93;;;3.05;;
69081;SDS011;56184;51.986;5.760;2022-11-18T16:21:12;7.65;;;3.60;;
69081;SDS011;56184;51.986;5.760;2022-11-18T16:23:38;8.10;;;2.95;;
69081;SDS011;56184;51.986;5.760;2022-11-18T16:26:04;9.38;;;3.08;;
69081;SDS011;56184;51.986;5.760;2022-11-18T16:28:29;7.57;;;3.10;;
69081;SDS011;56184;51.986;5.760;2022-11-18T16:30:55;8.55;;;3.58;;
69081;SDS011;56184;51.986;5.760;2022-11-18T16:33:39;7.60;;;3.10;;
69081;SDS011;56184;51.986;5.760;2022-11-18T16:36:05;7.57;;;3.20;;
69081;SDS011;56184;51.986;5.760;2022-11-18T16:38:31;6.30;;;3.25;;
69081;SDS011;56184;51.986;5.760;2022-11-18T16:40:57;7.82;;;3.20;;
69081;SDS011;56184;51.986;5.760;2022-11-18T16:43:23;7.07;;;3.70;;